sensor_id;sensor_type;location;lat;lon;timestamp;pressure;altitude;pressure_sealevel;temperature
6550;BMP280;15142;48.888;9.134;2023-04-05T00:01:32;98626.78;;;1.72
6550;BMP280;15142;48.888;9.134;2023-04-05T00:04:02;98625.25;;;1.77
6550;BMP280;15142;48.888;9.134;2023-04-05T00:06:32;98620.59;;;1.80
6550;BMP280;15142;48.888;9.134;2023-04-05T00:09:03;98626.97;;;1.76
6550;BMP280;15142;48.888;9.134;2023-04-05T00:11:32;98622.16;;;1.56
6550;BMP280;15142;48.888;9.134;2023-04-05T00:14:03;98614.81;;;1.41
6550;BMP280;15142;48.888;9.134;2023-04-05T00:16:32;98609.41;;;1.25
6550;BMP280;15142;48.888;9.134;2023-04-05T00:19:01;98600.53;;;1.23
6550;BMP280;15142;48.888;9.134;2023-04-05T00:21:30;98596.47;;;1.15
6550;BMP280;15142;48.888;9.134;2023-04-05T00:23:59;98600.91;;;1.13
6550;BMP280;15142;48.888;9.134;2023-04-05T00:26:28;98593.56;;;1.12
6550;BMP280;15142;48.888;9.134;2023-04-05T00:28:57;98593.56;;;1.12
6550;BMP280;15142;48.888;9.134;2023-04-05T00:31:29;98592.78;;;1.11
6550;BMP280;15142;48.888;9.134;2023-04-05T00:33:57;98587.00;;;1.11
6550;BMP280;15142;48.888;9.134;2023-04-05T00:36:26;98582.94;;;1.10
6550;BMP280;15142;48.888;9.134;2023-04-05T00:38:55;98588.16;;;1.08
6550;BMP280;15142;48.888;9.134;2023-04-05T00:41:24;98589.09;;;1.07
6550;BMP280;15142;48.888;9.134;2023-04-05T00:43:53;98584.06;;;1.07
6550;BMP280;15142;48.888;9.134;2023-04-05T00:46:21;98578.28;;;1.07
6550;BMP280;15142;48.888;9.134;2023-04-05T00:48:53;98575.78;;;1.07
6550;BMP280;15142;48.888;9.134;2023-04-05T00:51:22;98573.84;;;1.03
6550;BMP280;15142;48.888;9.134;2023-04-05T00:53:51;98570.16;;;0.99
6550;BMP280;15142;48.888;9.134;2023-04-05T00:56:21;98565.69;;;0.88
6550;BMP280;15142;48.888;9.134;2023-04-05T00:58:49;98568.19;;;0.75
6550;BMP280;15142;48.888;9.134;2023-04-05T01:01:20;98560.47;;;0.70
6550;BMP280;15142;48.888;9.134;2023-04-05T01:03:54;98565.50;;;0.70
6550;BMP280;15142;48.888;9.134;2023-04-05T01:06:32;98561.81;;;0.66
6550;BMP280;15142;48.888;9.134;2023-04-05T01:09:08;98555.22;;;0.65
6550;BMP280;15142;48.888;9.134;2023-04-05T01:11:39;98555.06;;;0.67
6550;BMP280;15142;48.888;9.134;2023-04-05T01:14:08;98555.06;;;0.73
6550;BMP280;15142;48.888;9.134;2023-04-05T01:16:38;98545.59;;;0.62
6550;BMP280;15142;48.888;9.134;2023-04-05T01:19:09;98544.97;;;0.54
6550;BMP280;15142;48.888;9.134;2023-04-05T01:24:49;98552.91;;;0.64
6550;BMP280;15142;48.888;9.134;2023-04-05T01:27:28;98544.22;;;0.60
6550;BMP280;15142;48.888;9.134;2023-04-05T01:30:08;98543.25;;;0.61
6550;BMP280;15142;48.888;9.134;2023-04-05T01:32:51;98547.47;;;0.54
6550;BMP280;15142;48.888;9.134;2023-04-05T01:35:36;98547.28;;;0.55
6550;BMP280;15142;48.888;9.134;2023-04-05T01:38:08;98537.44;;;0.54
6550;BMP280;15142;48.888;9.134;2023-04-05T01:40:39;98540.75;;;0.54
6550;BMP280;15142;48.888;9.134;2023-04-05T01:43:12;98536.31;;;0.56
6550;BMP280;15142;48.888;9.134;2023-04-05T01:45:45;98536.84;;;0.45
6550;BMP280;15142;48.888;9.134;2023-04-05T01:48:14;98539.16;;;0.40
6550;BMP280;15142;48.888;9.134;2023-04-05T01:50:43;98530.66;;;0.41
6550;BMP280;15142;48.888;9.134;2023-04-05T01:53:12;98534.72;;;0.42
6550;BMP280;15142;48.888;9.134;2023-04-05T01:55:40;98533.16;;;0.48
6550;BMP280;15142;48.888;9.134;2023-04-05T01:58:09;98526.03;;;0.51
6550;BMP280;15142;48.888;9.134;2023-04-05T02:00:37;98522.19;;;0.49
6550;BMP280;15142;48.888;9.134;2023-04-05T02:03:09;98518.91;;;0.48
6550;BMP280;15142;48.888;9.134;2023-04-05T02:05:37;98520.03;;;0.39
6550;BMP280;15142;48.888;9.134;2023-04-05T02:08:06;98524.69;;;0.36
6550;BMP280;15142;48.888;9.134;2023-04-05T02:10:34;98518.09;;;0.35
6550;BMP280;15142;48.888;9.134;2023-04-05T02:13:03;98522.75;;;0.38
6550;BMP280;15142;48.888;9.134;2023-04-05T02:15:32;98524.84;;;0.34
6550;BMP280;15142;48.888;9.134;2023-04-05T02:18:00;98524.88;;;0.28
6550;BMP280;15142;48.888;9.134;2023-04-05T02:20:32;98515.78;;;0.21
6550;BMP280;15142;48.888;9.134;2023-04-05T02:23:00;98512.28;;;0.22
6550;BMP280;15142;48.888;9.134;2023-04-05T02:25:29;98519.63;;;0.17
6550;BMP280;15142;48.888;9.134;2023-04-05T02:27:58;98507.06;;;0.17
6550;BMP280;15142;48.888;9.134;2023-04-05T02:30:26;98508.03;;;0.16
6550;BMP280;15142;48.888;9.134;2023-04-05T02:32:56;98510.94;;;0.19
6550;BMP280;15142;48.888;9.134;2023-04-05T02:35:26;98507.84;;;0.17
6550;BMP280;15142;48.888;9.134;2023-04-05T02:37:57;98513.84;;;0.16
6550;BMP280;15142;48.888;9.134;2023-04-05T02:40:26;98514.59;;;0.17
6550;BMP280;15142;48.888;9.134;2023-04-05T02:42:55;98509.59;;;0.17
6550;BMP280;15142;48.888;9.134;2023-04-05T02:45:23;98511.31;;;0.16
6550;BMP280;15142;48.888;9.134;2023-04-05T02:47:55;98515.94;;;0.13
6550;BMP280;15142;48.888;9.134;2023-04-05T02:50:27;98511.09;;;0.05
6550;BMP280;15142;48.888;9.134;2023-04-05T02:52:58;98511.50;;;0.08
6550;BMP280;15142;48.888;9.134;2023-04-05T02:55:29;98510.34;;;0.11
6550;BMP280;15142;48.888;9.134;2023-04-05T02:57:59;98500.72;;;0.14
6550;BMP280;15142;48.888;9.134;2023-04-05T03:00:35;98505.72;;;0.14
6550;BMP280;15142;48.888;9.134;2023-04-05T03:03:04;98507.25;;;0.09
6550;BMP280;15142;48.888;9.134;2023-04-05T03:05:37;98510.34;;;0.11
6550;BMP280;15142;48.888;9.134;2023-04-05T03:08:10;98501.22;;;-0.03
6550;BMP280;15142;48.888;9.134;2023-04-05T03:10:45;98498.72;;;-0.03
6550;BMP280;15142;48.888;9.134;2023-04-05T03:13:16;98501.03;;;-0.01
6550;BMP280;15142;48.888;9.134;2023-04-05T03:15:46;98497.19;;;-0.04
6550;BMP280;15142;48.888;9.134;2023-04-05T03:18:17;98491.38;;;-0.04
6550;BMP280;15142;48.888;9.134;2023-04-05T03:20:47;98489.44;;;-0.02
6550;BMP280;15142;48.888;9.134;2023-04-05T03:23:22;98490.19;;;-0.08
6550;BMP280;15142;48.888;9.134;2023-04-05T03:25:54;98489.41;;;-0.09
6550;BMP280;15142;48.888;9.134;2023-04-05T03:28:27;98503.28;;;-0.19
6550;BMP280;15142;48.888;9.134;2023-04-05T03:31:00;98501.34;;;-0.24
6550;BMP280;15142;48.888;9.134;2023-04-05T03:33:30;98508.66;;;-0.22
6550;BMP280;15142;48.888;9.134;2023-04-05T03:35:58;98499.59;;;-0.23
6550;BMP280;15142;48.888;9.134;2023-04-05T03:38:34;98507.13;;;-0.23
6550;BMP280;15142;48.888;9.134;2023-04-05T03:41:08;98487.34;;;-0.33
6550;BMP280;15142;48.888;9.134;2023-04-05T03:43:37;98494.75;;;-0.25
6550;BMP280;15142;48.888;9.134;2023-04-05T03:46:05;98503.00;;;-0.31
6550;BMP280;15142;48.888;9.134;2023-04-05T03:48:34;98498.16;;;-0.32
6550;BMP280;15142;48.888;9.134;2023-04-05T03:51:03;98493.00;;;-0.31
6550;BMP280;15142;48.888;9.134;2023-04-05T03:53:35;98500.50;;;-0.31
6550;BMP280;15142;48.888;9.134;2023-04-05T03:56:04;98498.94;;;-0.32
6550;BMP280;15142;48.888;9.134;2023-04-05T03:58:42;98504.47;;;-0.42
6550;BMP280;15142;48.888;9.134;2023-04-05T04:01:12;98493.84;;;-0.44
6550;BMP280;15142;48.888;9.134;2023-04-05T04:03:41;98495.59;;;-0.45
6550;BMP280;15142;48.888;9.134;2023-04-05T04:06:09;98502.53;;;-0.40
6550;BMP280;15142;48.888;9.134;2023-04-05T04:08:41;98502.50;;;-0.47
6550;BMP280;15142;48.888;9.134;2023-04-05T04:11:10;98504.59;;;-0.50
6550;BMP280;15142;48.888;9.134;2023-04-05T04:13:40;98507.69;;;-0.48
6550;BMP280;15142;48.888;9.134;2023-04-05T04:16:30;98499.25;;;-0.47
6550;BMP280;15142;48.888;9.134;2023-04-05T04:19:28;98504.59;;;-0.50
6550;BMP280;15142;48.888;9.134;2023-04-05T04:22:00;98508.09;;;-0.51
6550;BMP280;15142;48.888;9.134;2023-04-05T04:24:57;98495.31;;;-0.56
6550;BMP280;15142;48.888;9.134;2023-04-05T04:27:43;98502.91;;;-0.50
6550;BMP280;15142;48.888;9.134;2023-04-05T04:30:13;98497.66;;;-0.55
6550;BMP280;15142;48.888;9.134;2023-04-05T04:33:02;98499.38;;;-0.55
6550;BMP280;15142;48.888;9.134;2023-04-05T04:36:04;98491.44;;;-0.65
6550;BMP280;15142;48.888;9.134;2023-04-05T04:38:52;98491.44;;;-0.65
6550;BMP280;15142;48.888;9.134;2023-04-05T04:41:26;98485.06;;;-0.68
6550;BMP280;15142;48.888;9.134;2023-04-05T04:44:01;98491.78;;;-0.68
6550;BMP280;15142;48.888;9.134;2023-04-05T04:47:01;98491.19;;;-0.70
6550;BMP280;15142;48.888;9.134;2023-04-05T04:50:10;98496.00;;;-0.75
6550;BMP280;15142;48.888;9.134;2023-04-05T04:52:39;98493.69;;;-0.70
6550;BMP280;15142;48.888;9.134;2023-04-05T04:55:08;98497.94;;;-0.71
6550;BMP280;15142;48.888;9.134;2023-04-05T04:57:41;98503.13;;;-0.72
6550;BMP280;15142;48.888;9.134;2023-04-05T05:00:11;98505.63;;;-0.72
6550;BMP280;15142;48.888;9.134;2023-04-05T05:02:41;98502.91;;;-0.77
6550;BMP280;15142;48.888;9.134;2023-04-05T05:05:13;98507.31;;;-0.79
6550;BMP280;15142;48.888;9.134;2023-04-05T05:07:42;98500.97;;;-0.81
6550;BMP280;15142;48.888;9.134;2023-04-05T05:10:11;98508.50;;;-0.75
6550;BMP280;15142;48.888;9.134;2023-04-05T05:12:43;98505.63;;;-0.72
6550;BMP280;15142;48.888;9.134;2023-04-05T05:15:14;98510.25;;;-0.75
6550;BMP280;15142;48.888;9.134;2023-04-05T05:17:43;98511.19;;;-0.76
6550;BMP280;15142;48.888;9.134;2023-04-05T05:20:12;98514.72;;;-0.71
6550;BMP280;15142;48.888;9.134;2023-04-05T05:22:44;98514.00;;;-0.59
6550;BMP280;15142;48.888;9.134;2023-04-05T05:25:13;98507.69;;;-0.55
6550;BMP280;15142;48.888;9.134;2023-04-05T05:27:47;98514.28;;;-0.47
6550;BMP280;15142;48.888;9.134;2023-04-05T05:30:16;98513.50;;;-0.48
6550;BMP280;15142;48.888;9.134;2023-04-05T05:32:45;98514.34;;;-0.35
6550;BMP280;15142;48.888;9.134;2023-04-05T05:35:13;98515.91;;;-0.34
6550;BMP280;15142;48.888;9.134;2023-04-05T05:37:42;98515.19;;;-0.28
6550;BMP280;15142;48.888;9.134;2023-04-05T05:40:11;98514.44;;;-0.22
6550;BMP280;15142;48.888;9.134;2023-04-05T05:42:40;98512.72;;;-0.15
6550;BMP280;15142;48.888;9.134;2023-04-05T05:45:12;98516.41;;;-0.11
6550;BMP280;15142;48.888;9.134;2023-04-05T05:47:40;98515.09;;;-0.07
6550;BMP280;15142;48.888;9.134;2023-04-05T05:50:10;98507.41;;;0.01
6550;BMP280;15142;48.888;9.134;2023-04-05T05:52:38;98510.34;;;0.11
6550;BMP280;15142;48.888;9.134;2023-04-05T05:55:07;98509.59;;;0.17
6550;BMP280;15142;48.888;9.134;2023-04-05T05:57:36;98510.75;;;0.21
6550;BMP280;15142;48.888;9.134;2023-04-05T06:00:06;98526.78;;;0.33
6550;BMP280;15142;48.888;9.134;2023-04-05T06:02:43;98521.97;;;0.44
6550;BMP280;15142;48.888;9.134;2023-04-05T06:05:12;98519.69;;;0.55
6550;BMP280;15142;48.888;9.134;2023-04-05T06:07:41;98528.94;;;0.55
6550;BMP280;15142;48.888;9.134;2023-04-05T06:10:10;98524.50;;;0.50
6550;BMP280;15142;48.888;9.134;2023-04-05T06:12:39;98528.38;;;0.59
6550;BMP280;15142;48.888;9.134;2023-04-05T06:15:09;98525.09;;;0.52
6550;BMP280;15142;48.888;9.134;2023-04-05T06:17:37;98532.81;;;0.57
6550;BMP280;15142;48.888;9.134;2023-04-05T06:20:10;98531.88;;;0.58
6550;BMP280;15142;48.888;9.134;2023-04-05T06:22:39;98530.72;;;0.61
6550;BMP280;15142;48.888;9.134;2023-04-05T06:25:09;98540.19;;;0.71
6550;BMP280;15142;48.888;9.134;2023-04-05T06:27:37;98541.56;;;0.74
6550;BMP280;15142;48.888;9.134;2023-04-05T06:30:07;98546.75;;;0.79
6550;BMP280;15142;48.888;9.134;2023-04-05T06:32:36;98537.31;;;0.81
6550;BMP280;15142;48.888;9.134;2023-04-05T06:35:06;98535.19;;;0.91
6550;BMP280;15142;48.888;9.134;2023-04-05T06:37:37;98549.09;;;1.00
6550;BMP280;15142;48.888;9.134;2023-04-05T06:40:07;98541.38;;;1.07
6550;BMP280;15142;48.888;9.134;2023-04-05T06:42:36;98547.19;;;1.14
6550;BMP280;15142;48.888;9.134;2023-04-05T06:45:09;98545.06;;;1.24
6550;BMP280;15142;48.888;9.134;2023-04-05T06:47:39;98544.41;;;1.35
6550;BMP280;15142;48.888;9.134;2023-04-05T06:50:08;98528.94;;;1.51
6550;BMP280;15142;48.888;9.134;2023-04-05T06:52:39;98534.91;;;1.63
6550;BMP280;15142;48.888;9.134;2023-04-05T06:55:08;98539.00;;;1.64
6550;BMP280;15142;48.888;9.134;2023-04-05T06:57:36;98538.97;;;1.70
6550;BMP280;15142;48.888;9.134;2023-04-05T07:00:07;98540.09;;;1.80
6550;BMP280;15142;48.888;9.134;2023-04-05T07:02:38;98531.53;;;1.81
6550;BMP280;15142;48.888;9.134;2023-04-05T07:05:06;98548.94;;;1.96
6550;BMP280;15142;48.888;9.134;2023-04-05T07:07:41;98548.53;;;1.99
6550;BMP280;15142;48.888;9.134;2023-04-05T07:10:10;98547.34;;;2.01
6550;BMP280;15142;48.888;9.134;2023-04-05T07:12:39;98540.38;;;2.10
6550;BMP280;15142;48.888;9.134;2023-04-05T07:15:08;98549.03;;;2.20
6550;BMP280;15142;48.888;9.134;2023-04-05T07:17:37;98541.81;;;2.30
6550;BMP280;15142;48.888;9.134;2023-04-05T07:20:06;98546.03;;;2.29
6550;BMP280;15142;48.888;9.134;2023-04-05T07:22:35;98551.47;;;2.33
6550;BMP280;15142;48.888;9.134;2023-04-05T07:25:08;98537.22;;;2.51
6550;BMP280;15142;48.888;9.134;2023-04-05T07:27:36;98539.66;;;2.64
6550;BMP280;15142;48.888;9.134;2023-04-05T07:30:07;98541.50;;;2.75
6550;BMP280;15142;48.888;9.134;2023-04-05T07:32:36;98533.38;;;2.73
6550;BMP280;15142;48.888;9.134;2023-04-05T07:35:05;98529.56;;;2.88
6550;BMP280;15142;48.888;9.134;2023-04-05T07:37:35;98531.34;;;3.12
6550;BMP280;15142;48.888;9.134;2023-04-05T07:40:07;98536.81;;;3.26
6550;BMP280;15142;48.888;9.134;2023-04-05T07:42:38;98532.94;;;3.24
6550;BMP280;15142;48.888;9.134;2023-04-05T07:45:07;98535.97;;;3.32
6550;BMP280;15142;48.888;9.134;2023-04-05T07:47:36;98529.09;;;3.57
6550;BMP280;15142;48.888;9.134;2023-04-05T07:50:05;98541.13;;;3.61
6550;BMP280;15142;48.888;9.134;2023-04-05T07:52:34;98534.38;;;3.73
6550;BMP280;15142;48.888;9.134;2023-04-05T07:55:07;98529.19;;;4.15
6550;BMP280;15142;48.888;9.134;2023-04-05T07:57:36;98531.75;;;4.38
6550;BMP280;15142;48.888;9.134;2023-04-05T08:00:05;98535.03;;;4.90
6550;BMP280;15142;48.888;9.134;2023-04-05T08:02:38;98537.53;;;4.90
6550;BMP280;15142;48.888;9.134;2023-04-05T08:05:07;98531.28;;;4.81
6550;BMP280;15142;48.888;9.134;2023-04-05T08:07:36;98533.03;;;4.92
6550;BMP280;15142;48.888;9.134;2023-04-05T08:10:08;98546.75;;;5.30
6550;BMP280;15142;48.888;9.134;2023-04-05T08:12:37;98549.97;;;5.25
6550;BMP280;15142;48.888;9.134;2023-04-05T08:15:06;98539.16;;;5.30
6550;BMP280;15142;48.888;9.134;2023-04-05T08:17:35;98531.84;;;5.56
6550;BMP280;15142;48.888;9.134;2023-04-05T08:20:05;98525.13;;;5.89
6550;BMP280;15142;48.888;9.134;2023-04-05T08:22:33;98528.38;;;6.01
6550;BMP280;15142;48.888;9.134;2023-04-05T08:25:02;98528.63;;;6.15
6550;BMP280;15142;48.888;9.134;2023-04-05T08:27:33;98526.97;;;6.53
6550;BMP280;15142;48.888;9.134;2023-04-05T08:30:03;98524.69;;;6.68
6550;BMP280;15142;48.888;9.134;2023-04-05T08:32:32;98519.19;;;6.27
6550;BMP280;15142;48.888;9.134;2023-04-05T08:35:01;98522.34;;;6.18
6550;BMP280;15142;48.888;9.134;2023-04-05T08:37:32;98521.75;;;6.27
6550;BMP280;15142;48.888;9.134;2023-04-05T08:40:01;98527.63;;;6.60
6550;BMP280;15142;48.888;9.134;2023-04-05T08:42:35;98526.94;;;7.02
6550;BMP280;15142;48.888;9.134;2023-04-05T08:45:07;98514.84;;;6.55
6550;BMP280;15142;48.888;9.134;2023-04-05T08:47:36;98518.97;;;6.29
6550;BMP280;15142;48.888;9.134;2023-04-05T08:50:09;98524.22;;;6.22
6550;BMP280;15142;48.888;9.134;2023-04-05T08:52:40;98517.25;;;6.99
6550;BMP280;15142;48.888;9.134;2023-04-05T08:55:10;98516.94;;;6.96
6550;BMP280;15142;48.888;9.134;2023-04-05T08:57:43;98519.81;;;7.20
6550;BMP280;15142;48.888;9.134;2023-04-05T09:00:15;98510.16;;;7.43
6550;BMP280;15142;48.888;9.134;2023-04-05T09:02:46;98501.41;;;7.56
6550;BMP280;15142;48.888;9.134;2023-04-05T09:05:16;98512.75;;;7.96
6550;BMP280;15142;48.888;9.134;2023-04-05T09:07:46;98511.22;;;7.95
6550;BMP280;15142;48.888;9.134;2023-04-05T09:10:17;98513.25;;;7.71
6550;BMP280;15142;48.888;9.134;2023-04-05T09:12:49;98512.84;;;7.32
6550;BMP280;15142;48.888;9.134;2023-04-05T09:15:19;98512.06;;;7.32
6550;BMP280;15142;48.888;9.134;2023-04-05T09:17:53;98512.50;;;7.71
6550;BMP280;15142;48.888;9.134;2023-04-05T09:20:22;98513.84;;;7.78
6550;BMP280;15142;48.888;9.134;2023-04-05T09:22:51;98505.00;;;7.60
6550;BMP280;15142;48.888;9.134;2023-04-05T09:25:33;98502.97;;;7.83
6550;BMP280;15142;48.888;9.134;2023-04-05T09:28:06;98507.38;;;7.92
6550;BMP280;15142;48.888;9.134;2023-04-05T09:30:35;98500.22;;;7.89
6550;BMP280;15142;48.888;9.134;2023-04-05T09:33:07;98504.81;;;8.23
6550;BMP280;15142;48.888;9.134;2023-04-05T09:35:36;98503.06;;;8.24
6550;BMP280;15142;48.888;9.134;2023-04-05T09:38:04;98497.00;;;8.30
6550;BMP280;15142;48.888;9.134;2023-04-05T09:40:43;98507.06;;;8.46
6550;BMP280;15142;48.888;9.134;2023-04-05T09:43:37;98504.03;;;8.18
6550;BMP280;15142;48.888;9.134;2023-04-05T09:46:06;98491.66;;;8.26
6550;BMP280;15142;48.888;9.134;2023-04-05T09:48:46;98499.63;;;8.39
6550;BMP280;15142;48.888;9.134;2023-04-05T09:51:17;98499.09;;;8.37
6550;BMP280;15142;48.888;9.134;2023-04-05T09:53:56;98494.09;;;7.85
6550;BMP280;15142;48.888;9.134;2023-04-05T09:56:27;98490.06;;;7.63
6550;BMP280;15142;48.888;9.134;2023-04-05T09:59:02;98492.03;;;7.82
6550;BMP280;15142;48.888;9.134;2023-04-05T10:01:34;98486.31;;;7.97
6550;BMP280;15142;48.888;9.134;2023-04-05T10:04:03;98484.25;;;8.25
6550;BMP280;15142;48.888;9.134;2023-04-05T10:06:35;98495.88;;;8.52
6550;BMP280;15142;48.888;9.134;2023-04-05T10:09:05;98487.94;;;8.43
6550;BMP280;15142;48.888;9.134;2023-04-05T10:11:35;98475.94;;;8.39
6550;BMP280;15142;48.888;9.134;2023-04-05T10:14:07;98479.59;;;9.03
6550;BMP280;15142;48.888;9.134;2023-04-05T10:16:37;98482.13;;;8.98
6550;BMP280;15142;48.888;9.134;2023-04-05T10:19:15;98479.84;;;9.07
6550;BMP280;15142;48.888;9.134;2023-04-05T10:21:48;98460.09;;;9.33
6550;BMP280;15142;48.888;9.134;2023-04-05T10:24:27;98461.84;;;9.33
6550;BMP280;15142;48.888;9.134;2023-04-05T10:27:04;98467.44;;;9.30
6550;BMP280;15142;48.888;9.134;2023-04-05T10:29:41;98468.53;;;9.58
6550;BMP280;15142;48.888;9.134;2023-04-05T10:32:15;98464.72;;;9.76
6550;BMP280;15142;48.888;9.134;2023-04-05T10:34:52;98455.75;;;9.29
6550;BMP280;15142;48.888;9.134;2023-04-05T10:37:32;98460.13;;;9.68
6550;BMP280;15142;48.888;9.134;2023-04-05T10:40:07;98462.91;;;9.42
6550;BMP280;15142;48.888;9.134;2023-04-05T10:42:41;98466.25;;;9.77
6550;BMP280;15142;48.888;9.134;2023-04-05T10:45:16;98466.94;;;9.33
6550;BMP280;15142;48.888;9.134;2023-04-05T10:47:53;98464.69;;;9.56
6550;BMP280;15142;48.888;9.134;2023-04-05T10:50:23;98455.25;;;9.37
6550;BMP280;15142;48.888;9.134;2023-04-05T10:52:52;98465.25;;;9.78
6550;BMP280;15142;48.888;9.134;2023-04-05T10:55:21;98466.00;;;9.78
6550;BMP280;15142;48.888;9.134;2023-04-05T10:57:50;98460.84;;;10.22
6550;BMP280;15142;48.888;9.134;2023-04-05T11:00:23;98444.81;;;10.12
6550;BMP280;15142;48.888;9.134;2023-04-05T11:02:53;98449.66;;;10.14
6550;BMP280;15142;48.888;9.134;2023-04-05T11:05:30;98448.59;;;10.44
6550;BMP280;15142;48.888;9.134;2023-04-05T11:08:03;98453.06;;;10.77
6550;BMP280;15142;48.888;9.134;2023-04-05T11:10:36;98455.78;;;11.38
6550;BMP280;15142;48.888;9.134;2023-04-05T11:13:07;98447.66;;;11.92
6550;BMP280;15142;48.888;9.134;2023-04-05T11:15:40;98445.56;;;11.70
6550;BMP280;15142;48.888;9.134;2023-04-05T11:18:10;98442.06;;;11.29
6550;BMP280;15142;48.888;9.134;2023-04-05T11:20:40;98437.44;;;11.92
6550;BMP280;15142;48.888;9.134;2023-04-05T11:23:09;98440.75;;;12.43
6550;BMP280;15142;48.888;9.134;2023-04-05T11:25:39;98442.06;;;13.00
6550;BMP280;15142;48.888;9.134;2023-04-05T11:28:07;98441.47;;;12.67
6550;BMP280;15142;48.888;9.134;2023-04-05T11:30:49;98430.38;;;11.51
6550;BMP280;15142;48.888;9.134;2023-04-05T11:33:54;98432.13;;;12.57
6550;BMP280;15142;48.888;9.134;2023-04-05T11:36:32;98436.28;;;12.54
6550;BMP280;15142;48.888;9.134;2023-04-05T11:39:21;98434.44;;;12.95
6550;BMP280;15142;48.888;9.134;2023-04-05T11:41:54;98424.88;;;13.37
6550;BMP280;15142;48.888;9.134;2023-04-05T11:44:23;98427.19;;;12.43
6550;BMP280;15142;48.888;9.134;2023-04-05T11:46:55;98422.09;;;12.61
6550;BMP280;15142;48.888;9.134;2023-04-05T11:49:24;98422.03;;;12.66
6550;BMP280;15142;48.888;9.134;2023-04-05T11:51:53;98410.72;;;13.03
6550;BMP280;15142;48.888;9.134;2023-04-05T11:54:28;98409.47;;;13.95
6550;BMP280;15142;48.888;9.134;2023-04-05T11:56:57;98402.72;;;13.99
6550;BMP280;15142;48.888;9.134;2023-04-05T11:59:30;98401.66;;;12.15
6550;BMP280;15142;48.888;9.134;2023-04-05T12:02:03;98407.00;;;12.18
6550;BMP280;15142;48.888;9.134;2023-04-05T12:04:33;98410.41;;;12.73
6550;BMP280;15142;48.888;9.134;2023-04-05T12:07:10;98402.53;;;14.09
6550;BMP280;15142;48.888;9.134;2023-04-05T12:09:57;98406.13;;;13.37
6550;BMP280;15142;48.888;9.134;2023-04-05T12:12:26;98401.50;;;13.52
6550;BMP280;15142;48.888;9.134;2023-04-05T12:14:58;98402.22;;;14.10
6550;BMP280;15142;48.888;9.134;2023-04-05T12:17:54;98402.50;;;14.35
6550;BMP280;15142;48.888;9.134;2023-04-05T12:20:24;98387.03;;;15.27
6550;BMP280;15142;48.888;9.134;2023-04-05T12:22:54;98391.31;;;14.88
6550;BMP280;15142;48.888;9.134;2023-04-05T12:25:24;98392.25;;;13.69
6550;BMP280;15142;48.888;9.134;2023-04-05T12:27:53;98380.63;;;14.73
6550;BMP280;15142;48.888;9.134;2023-04-05T12:30:23;98369.66;;;14.46
6550;BMP280;15142;48.888;9.134;2023-04-05T12:32:55;98383.88;;;13.32
6550;BMP280;15142;48.888;9.134;2023-04-05T12:35:28;98380.22;;;12.70
6550;BMP280;15142;48.888;9.134;2023-04-05T12:38:00;98379.94;;;13.40
6550;BMP280;15142;48.888;9.134;2023-04-05T12:40:30;98369.75;;;13.79
6550;BMP280;15142;48.888;9.134;2023-04-05T12:43:02;98368.03;;;14.02
6550;BMP280;15142;48.888;9.134;2023-04-05T12:45:32;98370.81;;;13.47
6550;BMP280;15142;48.888;9.134;2023-04-05T12:48:11;98366.47;;;13.74
6550;BMP280;15142;48.888;9.134;2023-04-05T12:50:45;98369.53;;;15.75
6550;BMP280;15142;48.888;9.134;2023-04-05T12:53:17;98362.94;;;15.91
6550;BMP280;15142;48.888;9.134;2023-04-05T12:55:50;98361.88;;;15.45
6550;BMP280;15142;48.888;9.134;2023-04-05T12:58:20;98362.53;;;15.59
6550;BMP280;15142;48.888;9.134;2023-04-05T13:00:49;98354.22;;;15.62
6550;BMP280;15142;48.888;9.134;2023-04-05T13:03:20;98354.00;;;16.05
6550;BMP280;15142;48.888;9.134;2023-04-05T13:05:53;98353.13;;;16.18
6550;BMP280;15142;48.888;9.134;2023-04-05T13:08:21;98350.97;;;16.87
6550;BMP280;15142;48.888;9.134;2023-04-05T13:10:51;98348.00;;;16.35
6550;BMP280;15142;48.888;9.134;2023-04-05T13:13:20;98353.44;;;16.17
6550;BMP280;15142;48.888;9.134;2023-04-05T13:15:49;98351.44;;;15.20
6550;BMP280;15142;48.888;9.134;2023-04-05T13:18:20;98350.06;;;15.44
6550;BMP280;15142;48.888;9.134;2023-04-05T13:20:49;98338.81;;;15.02
6550;BMP280;15142;48.888;9.134;2023-04-05T13:23:17;98338.56;;;15.12
6550;BMP280;15142;48.888;9.134;2023-04-05T13:25:45;98336.66;;;15.64
6550;BMP280;15142;48.888;9.134;2023-04-05T13:28:14;98344.50;;;16.14
6550;BMP280;15142;48.888;9.134;2023-04-05T13:30:42;98334.69;;;15.70
6550;BMP280;15142;48.888;9.134;2023-04-05T13:33:12;98328.16;;;15.55
6550;BMP280;15142;48.888;9.134;2023-04-05T13:35:43;98324.81;;;15.55
6550;BMP280;15142;48.888;9.134;2023-04-05T13:38:12;98322.47;;;15.28
6550;BMP280;15142;48.888;9.134;2023-04-05T13:40:41;98323.56;;;15.91
6550;BMP280;15142;48.888;9.134;2023-04-05T13:43:09;98316.88;;;15.81
6550;BMP280;15142;48.888;9.134;2023-04-05T13:45:38;98312.09;;;14.25
6550;BMP280;15142;48.888;9.134;2023-04-05T13:48:07;98307.19;;;14.02
6550;BMP280;15142;48.888;9.134;2023-04-05T13:50:35;98307.44;;;12.89
6550;BMP280;15142;48.888;9.134;2023-04-05T13:53:06;98309.41;;;12.25
6550;BMP280;15142;48.888;9.134;2023-04-05T13:55:35;98301.50;;;11.29
6550;BMP280;15142;48.888;9.134;2023-04-05T13:58:04;98304.63;;;10.93
6550;BMP280;15142;48.888;9.134;2023-04-05T14:00:33;98295.59;;;11.33
6550;BMP280;15142;48.888;9.134;2023-04-05T14:03:01;98292.28;;;11.00
6550;BMP280;15142;48.888;9.134;2023-04-05T14:05:30;98281.63;;;11.26
6550;BMP280;15142;48.888;9.134;2023-04-05T14:07:58;98279.91;;;11.16
6550;BMP280;15142;48.888;9.134;2023-04-05T14:10:30;98279.63;;;10.90
6550;BMP280;15142;48.888;9.134;2023-04-05T14:12:58;98280.75;;;11.07
6550;BMP280;15142;48.888;9.134;2023-04-05T14:15:27;98288.69;;;10.73
6550;BMP280;15142;48.888;9.134;2023-04-05T14:17:56;98281.56;;;11.31
6550;BMP280;15142;48.888;9.134;2023-04-05T14:20:25;98277.72;;;12.02
6550;BMP280;15142;48.888;9.134;2023-04-05T14:22:54;98274.41;;;11.33
6550;BMP280;15142;48.888;9.134;2023-04-05T14:25:22;98285.63;;;11.60
6550;BMP280;15142;48.888;9.134;2023-04-05T14:27:53;98272.38;;;11.30
6550;BMP280;15142;48.888;9.134;2023-04-05T14:30:22;98267.78;;;10.99
6550;BMP280;15142;48.888;9.134;2023-04-05T14:32:51;98265.28;;;10.94
6550;BMP280;15142;48.888;9.134;2023-04-05T14:35:20;98258.84;;;11.01
6550;BMP280;15142;48.888;9.134;2023-04-05T14:37:48;98260.63;;;10.73
6550;BMP280;15142;48.888;9.134;2023-04-05T14:40:17;98259.22;;;10.47
6550;BMP280;15142;48.888;9.134;2023-04-05T14:42:46;98247.38;;;10.23
6550;BMP280;15142;48.888;9.134;2023-04-05T14:45:17;98250.50;;;10.05
6550;BMP280;15142;48.888;9.134;2023-04-05T14:47:48;98256.59;;;10.14
6550;BMP280;15142;48.888;9.134;2023-04-05T14:50:16;98250.69;;;10.23
6550;BMP280;15142;48.888;9.134;2023-04-05T14:52:45;98251.56;;;10.47
6550;BMP280;15142;48.888;9.134;2023-04-05T14:55:14;98255.41;;;10.45
6550;BMP280;15142;48.888;9.134;2023-04-05T14:57:42;98252.72;;;10.26